메인 페이지
METAR-TAF:

METAR-TAF

공항 :

부다페스트 리스트 페렌츠 국제공항

부다페스트, 헝가리

위도: 47-26N, 경도: 019-16E, 고도: 151m

현재 날씨관측

예보는 35분 전, 10:00시(UTC)에 발표되었습니다.
동북동12kt북북동풍과 풍을 오가는
온도 10°C
습도 53%
기압 1032 hPa
시정 10km 이상
1500m 미만 상공 구름 및 적란운 없음

METAR: LHBP 161000Z 06012KT 030V100 CAVOK 10/01 Q1032 NOSIG

시각: 11:35 (10:35 UTC)

예보

예보는 5 시간 20분 전, 05:15시(UTC)에 발표되었습니다.
예보 대상 시간: 16일 06시부터 17일 06시까지 (UTC)
7kt
시정 10km 이상
1500m 미만 상공 구름 및 적란운 없음
전환 중
16일 07시부터 16일 09시까지 (UTC)
동북동11kt
전환 중
16일 16시부터 16일 18시까지 (UTC)
북북동7kt

TAF: LHBP 160515Z 1606/1706 36007KT CAVOK BECMG 1607/1609 06011KT BECMG 1616/1618 02007KT

4,000개 이상의 공항 관측 자료 및 예보 (METAR 및 TAF 보고).

지도상에서 검색 가능한 기상관측소가 노란 점과 빨간 점으로 표시되어 있습니다.

기상관측소 명을 보려면 표시 위로 마우스를 이동하세요.

날씨 관측과 예보를 보려면 클릭하세요.

지도 변경 : 확대하려면 엑스 표시가 있는 녹색 버튼, 축소하려면 빼기 표시가 있는 녹색 버튼, 다음 페이지의 지도를 보려면 녹색 화살표를 클릭하세요.


METAR-TAF: